createdAt,value
2023-01-04T08:59:33.596Z,29.88
2023-01-04T09:04:37.382Z,31.35
2023-01-04T09:09:41.148Z,31.70
2023-01-04T09:14:46.407Z,29.42
2023-01-04T09:19:50.078Z,30.15
2023-01-04T09:24:53.719Z,32.38
2023-01-04T09:29:59.045Z,31.30
2023-01-04T09:35:02.694Z,28.33
2023-01-04T09:40:07.497Z,30.13
2023-01-04T09:45:24.666Z,29.42
2023-01-04T09:50:33.456Z,29.92
2023-01-04T09:55:41.838Z,28.88
2023-01-04T10:00:51.042Z,29.20
2023-01-04T10:05:56.357Z,28.48
2023-01-04T10:11:19.259Z,28.17
2023-01-04T10:22:10.603Z,32.10
2023-01-04T10:27:25.116Z,29.20
2023-01-04T10:32:40.013Z,28.90
2023-01-04T10:37:44.154Z,27.13
2023-01-04T10:42:57.836Z,26.08
2023-01-04T10:48:08.968Z,23.38
2023-01-04T10:53:17.683Z,26.17
2023-01-04T10:58:27.558Z,28.55
2023-01-04T11:03:38.572Z,26.80
2023-01-04T11:08:50.645Z,27.65
2023-01-04T11:13:54.502Z,26.17
2023-01-04T11:19:00.268Z,25.75
2023-01-04T11:24:30.866Z,26.67
2023-01-04T11:29:38.622Z,23.83
2023-01-04T11:34:48.576Z,24.33
2023-01-04T11:39:52.206Z,24.20
2023-01-04T11:44:59.999Z,26.15
2023-01-04T11:50:06.416Z,28.88
2023-01-04T12:00:21.647Z,24.65
2023-01-04T12:05:30.300Z,21.30
2023-01-04T12:10:34.449Z,25.58
2023-01-04T12:15:46.624Z,28.90
2023-01-04T12:20:52.035Z,25.80
2023-01-04T12:25:56.636Z,24.50
2023-01-04T12:31:31.010Z,25.58
2023-01-04T12:37:05.296Z,24.85
2023-01-04T12:42:11.593Z,23.50
2023-01-04T12:47:47.645Z,25.23
2023-01-04T12:53:11.193Z,22.45
2023-01-04T12:59:23.410Z,21.67
2023-01-04T13:04:28.559Z,18.15
2023-01-04T13:09:46.423Z,17.00
2023-01-04T13:14:55.290Z,16.60
2023-01-04T13:19:58.971Z,16.05
2023-01-04T13:25:04.918Z,16.92
2023-01-04T13:30:23.299Z,17.27
2023-01-04T13:35:26.968Z,15.52
2023-01-04T13:40:34.495Z,15.65
2023-01-04T13:46:02.094Z,15.73
2023-01-04T13:51:17.047Z,16.17
2023-01-04T13:56:23.910Z,13.57
2023-01-04T14:01:30.816Z,14.63
2023-01-04T14:06:40.627Z,17.15
2023-01-04T14:11:50.592Z,18.38
2023-01-04T14:17:10.056Z,20.05
2023-01-04T14:22:50.566Z,20.65
2023-01-04T14:28:19.668Z,19.75
2023-01-04T14:33:28.605Z,20.38
2023-01-04T14:38:37.719Z,20.67
2023-01-04T14:43:49.383Z,22.23
2023-01-04T14:48:53.079Z,20.20
2023-01-04T14:53:56.734Z,22.15
2023-01-04T14:59:02.068Z,19.40
2023-01-04T15:04:06.072Z,21.90
2023-01-04T15:09:11.491Z,22.95
2023-01-04T15:14:16.944Z,21.20
2023-01-04T15:19:20.586Z,17.02
2023-01-04T15:24:24.329Z,16.15
2023-01-04T15:29:30.694Z,17.45
2023-01-04T15:39:37.529Z,16.10
2023-01-04T15:44:44.429Z,14.38
2023-01-04T15:49:48.094Z,14.70
2023-01-04T15:54:51.739Z,14.25
2023-01-04T15:59:57.189Z,13.80
2023-01-04T16:05:00.861Z,13.87
2023-01-04T16:10:04.847Z,13.07
2023-01-04T16:15:12.551Z,11.57
2023-01-04T16:20:17.635Z,11.60
2023-01-04T16:25:21.310Z,9.93
2023-01-04T16:30:29.815Z,10.35
2023-01-04T16:35:33.668Z,9.60
2023-01-04T16:40:40.021Z,12.70
2023-01-04T16:50:48.298Z,9.02
2023-01-04T16:55:51.967Z,10.48
2023-01-04T17:00:57.337Z,9.60
2023-01-04T17:06:01.028Z,9.87
2023-01-04T17:11:50.879Z,12.18
2023-01-04T17:16:37.192Z,10.88
2023-01-04T17:21:40.867Z,11.07
2023-01-04T17:26:44.651Z,10.95
2023-01-04T17:31:50.015Z,10.80
2023-01-04T17:36:53.761Z,8.50
2023-01-04T17:41:57.400Z,8.48
2023-01-04T17:47:02.783Z,4.82
2023-01-04T17:52:08.846Z,3.50
2023-01-04T18:02:18.031Z,0.82
2023-01-04T18:07:21.696Z,1.13
2023-01-04T18:12:25.342Z,0.60
2023-01-04T18:17:31.682Z,0.65
2023-01-04T18:22:35.568Z,0.88
2023-01-04T18:27:39.264Z,0.93
2023-01-04T18:32:44.570Z,0.60
2023-01-04T18:37:48.195Z,0.47
2023-01-04T18:42:52.165Z,0.70
2023-01-04T18:47:58.242Z,0.57
2023-01-04T18:53:01.907Z,0.63
2023-01-04T18:58:05.564Z,0.63
2023-01-04T19:03:18.024Z,0.68
2023-01-04T19:08:22.150Z,0.60
2023-01-04T19:13:25.839Z,0.90
2023-01-04T19:18:31.171Z,0.82
2023-01-04T19:23:34.855Z,1.13
2023-01-04T19:28:38.524Z,0.52
2023-01-04T19:33:44.006Z,0.60
2023-01-04T19:38:47.747Z,0.73
2023-01-04T19:43:51.797Z,0.50
2023-01-04T19:48:57.137Z,1.00
2023-01-04T19:54:00.774Z,0.70
2023-01-04T19:59:04.433Z,0.50
2023-01-04T20:04:09.719Z,1.02
2023-01-04T20:09:13.343Z,0.50
2023-01-04T20:14:16.979Z,0.50
2023-01-04T20:19:22.335Z,0.52
2023-01-04T20:24:25.997Z,0.70
2023-01-04T20:29:29.669Z,0.52
2023-01-04T20:34:35.056Z,0.50
2023-01-04T20:39:38.883Z,1.40
2023-01-04T20:44:42.545Z,0.40
2023-01-04T20:49:48.234Z,0.82
2023-01-04T20:54:51.908Z,0.73
2023-01-04T20:59:56.249Z,0.95
2023-01-04T21:05:01.561Z,0.82
2023-01-04T21:10:05.752Z,1.30
2023-01-04T21:15:10.297Z,1.10
2023-01-04T21:20:15.828Z,1.45
2023-01-04T21:25:19.476Z,1.40
2023-01-04T21:30:23.146Z,1.13
2023-01-04T21:35:28.925Z,1.88
2023-01-04T21:40:32.651Z,1.48
2023-01-04T21:45:39.929Z,1.63
2023-01-04T21:50:45.313Z,1.30
2023-01-04T21:55:48.967Z,1.53
2023-01-04T22:00:52.629Z,1.75
2023-01-04T22:06:02.011Z,1.90
2023-01-04T22:11:05.819Z,1.80
2023-01-04T22:16:11.489Z,1.63
2023-01-04T22:21:18.692Z,1.63
2023-01-04T22:26:22.338Z,1.60
2023-01-04T22:31:26.002Z,1.08
2023-01-04T22:36:31.355Z,1.02
2023-01-04T22:41:35.271Z,1.13
2023-01-04T22:46:42.033Z,1.50
2023-01-04T22:51:47.446Z,1.02
2023-01-04T22:56:51.738Z,1.40
2023-01-04T23:01:55.406Z,1.55
2023-01-04T23:07:02.081Z,1.15
2023-01-04T23:12:06.059Z,0.73
2023-01-04T23:17:09.738Z,1.40
2023-01-04T23:22:15.151Z,0.93
2023-01-04T23:27:20.993Z,1.13
2023-01-04T23:32:24.622Z,1.45
2023-01-04T23:37:31.924Z,1.67
2023-01-04T23:42:35.862Z,1.00
2023-01-04T23:47:39.642Z,0.90
2023-01-04T23:52:45.017Z,1.02
2023-01-04T23:57:48.622Z,1.07
